createdAt,value
2022-09-06T00:00:46.047Z,0.00
2022-09-06T00:01:46.000Z,0.00
2022-09-06T00:02:46.147Z,0.00
2022-09-06T00:03:45.971Z,0.00
2022-09-06T00:04:45.866Z,0.00
2022-09-06T00:05:45.809Z,0.00
2022-09-06T00:06:45.759Z,0.00
2022-09-06T00:07:45.726Z,0.00
2022-09-06T00:08:45.674Z,0.00
2022-09-06T00:09:46.099Z,0.00
2022-09-06T00:10:45.566Z,0.00
2022-09-06T00:11:45.519Z,0.00
2022-09-06T00:12:45.467Z,0.00
2022-09-06T00:13:45.434Z,0.00
2022-09-06T00:14:45.375Z,0.00
2022-09-06T00:15:45.358Z,0.00
2022-09-06T00:16:45.290Z,0.00
2022-09-06T00:17:45.231Z,0.00
2022-09-06T00:18:45.193Z,0.00
2022-09-06T00:19:45.131Z,0.00
2022-09-06T00:20:45.083Z,0.00
2022-09-06T00:21:45.032Z,0.00
2022-09-06T00:22:44.987Z,0.00
2022-09-06T00:23:44.954Z,0.00
2022-09-06T00:24:44.891Z,0.00
2022-09-06T00:25:44.843Z,0.00
2022-09-06T00:26:44.793Z,0.00
2022-09-06T00:27:44.754Z,0.00
2022-09-06T00:28:44.715Z,0.00
2022-09-06T00:29:44.653Z,0.00
2022-09-06T00:30:44.653Z,0.00
2022-09-06T00:31:44.568Z,0.00
2022-09-06T00:32:44.504Z,0.00
2022-09-06T00:33:44.470Z,0.00
2022-09-06T00:34:44.410Z,0.00
2022-09-06T00:35:44.361Z,0.00
2022-09-06T00:36:44.333Z,0.00
2022-09-06T00:37:44.266Z,0.00
2022-09-06T00:38:44.218Z,0.00
2022-09-06T00:39:44.219Z,0.00
2022-09-06T00:40:44.120Z,0.00
2022-09-06T00:41:44.073Z,0.00
2022-09-06T00:42:44.041Z,0.00
2022-09-06T00:43:43.989Z,0.00
2022-09-06T00:44:43.940Z,0.00
2022-09-06T00:45:43.879Z,0.00
2022-09-06T00:46:43.921Z,0.00
2022-09-06T00:47:43.783Z,0.00
2022-09-06T00:48:43.738Z,0.00
2022-09-06T00:49:43.704Z,0.00
2022-09-06T00:50:43.640Z,0.00
2022-09-06T00:51:43.592Z,0.00
2022-09-06T00:52:43.551Z,0.00
2022-09-06T00:53:43.511Z,0.00
2022-09-06T00:54:43.445Z,0.00
2022-09-06T00:55:43.398Z,0.00
2022-09-06T00:56:43.347Z,0.00
2022-09-06T00:57:43.299Z,0.00
2022-09-06T00:58:43.253Z,0.00
2022-09-06T00:59:43.221Z,0.00
2022-09-06T01:00:43.154Z,0.00
2022-09-06T01:01:43.286Z,0.00
2022-09-06T01:02:43.185Z,0.00
2022-09-06T01:03:43.019Z,0.00
2022-09-06T01:04:42.975Z,0.00
2022-09-06T01:05:42.917Z,0.00
2022-09-06T01:06:42.868Z,0.00
2022-09-06T01:07:42.817Z,0.00
2022-09-06T01:08:42.767Z,0.00
2022-09-06T01:09:42.738Z,0.00
2022-09-06T01:10:42.690Z,0.00
2022-09-06T01:11:42.625Z,0.00
2022-09-06T01:12:42.603Z,0.00
2022-09-06T01:13:42.525Z,0.00
2022-09-06T01:14:42.479Z,0.00
2022-09-06T01:15:42.469Z,0.00
2022-09-06T01:16:42.383Z,0.00
2022-09-06T01:17:42.336Z,0.00
2022-09-06T01:18:42.287Z,0.00
2022-09-06T01:19:42.238Z,0.00
2022-09-06T01:20:42.204Z,0.00
2022-09-06T01:21:42.142Z,0.00
2022-09-06T01:22:42.092Z,0.00
2022-09-06T01:23:42.045Z,0.00
2022-09-06T01:24:41.996Z,0.00
2022-09-06T01:25:41.964Z,0.00
2022-09-06T01:26:41.916Z,0.00
2022-09-06T01:27:41.853Z,0.00
2022-09-06T01:28:41.808Z,0.00
2022-09-06T01:29:41.754Z,0.00
2022-09-06T01:30:41.757Z,0.00
2022-09-06T01:31:41.662Z,0.00
2022-09-06T01:32:41.638Z,0.00
2022-09-06T01:33:41.560Z,0.00
2022-09-06T01:34:41.516Z,0.00
2022-09-06T01:35:41.465Z,0.00
2022-09-06T01:36:49.768Z,0.00
2022-09-06T01:37:41.382Z,0.00
2022-09-06T01:38:41.339Z,0.00
2022-09-06T01:39:41.318Z,0.00
2022-09-06T01:40:41.223Z,0.00
2022-09-06T01:41:41.177Z,0.00
2022-09-06T01:42:41.129Z,0.00
2022-09-06T01:43:41.080Z,0.00
2022-09-06T01:44:41.056Z,0.00
2022-09-06T01:45:40.981Z,0.00
2022-09-06T01:46:40.936Z,0.00
2022-09-06T01:47:40.929Z,0.00
2022-09-06T01:48:40.836Z,0.00
2022-09-06T01:49:40.802Z,0.00
2022-09-06T01:50:40.741Z,0.00
2022-09-06T01:51:40.693Z,0.00
2022-09-06T01:52:40.641Z,0.00
2022-09-06T01:53:40.613Z,0.00
2022-09-06T01:54:40.550Z,0.00
2022-09-06T01:55:40.498Z,0.00
2022-09-06T01:56:40.461Z,0.00
2022-09-06T01:57:40.400Z,0.00
2022-09-06T01:58:40.352Z,0.00
2022-09-06T01:59:40.307Z,0.00
2022-09-06T02:00:40.259Z,0.00
2022-09-06T02:01:40.278Z,0.00
2022-09-06T02:02:40.213Z,0.00
2022-09-06T02:03:40.113Z,0.00
2022-09-06T02:04:40.060Z,0.00
2022-09-06T02:05:40.015Z,0.00
2022-09-06T02:06:39.991Z,0.00
2022-09-06T02:07:39.920Z,0.00
2022-09-06T02:08:39.868Z,0.00
2022-09-06T02:09:39.818Z,0.00
2022-09-06T02:10:39.792Z,0.00
2022-09-06T02:11:39.737Z,0.00
2022-09-06T02:12:39.694Z,0.00
2022-09-06T02:13:39.626Z,0.00
2022-09-06T02:14:39.578Z,0.00
2022-09-06T02:15:39.531Z,0.00
2022-09-06T02:16:39.624Z,0.00
2022-09-06T02:17:39.452Z,0.00
2022-09-06T02:18:39.387Z,0.00
2022-09-06T02:19:39.338Z,0.00
2022-09-06T02:20:39.295Z,0.00
2022-09-06T02:21:39.239Z,0.00
2022-09-06T02:22:39.207Z,0.00
2022-09-06T02:23:39.144Z,0.00
2022-09-06T02:24:39.094Z,0.00
2022-09-06T02:25:39.050Z,0.00
2022-09-06T02:26:39.012Z,0.00
2022-09-06T02:27:38.948Z,0.00
2022-09-06T02:28:38.901Z,0.00
2022-09-06T02:29:38.952Z,0.00
2022-09-06T02:30:38.863Z,0.00
2022-09-06T02:31:38.772Z,0.00
2022-09-06T02:32:38.705Z,0.00
2022-09-06T02:33:38.659Z,0.00
2022-09-06T02:34:38.610Z,0.00
2022-09-06T02:35:38.576Z,0.00
2022-09-06T02:36:38.517Z,0.00
2022-09-06T02:37:38.465Z,0.00
2022-09-06T02:38:38.433Z,0.00
2022-09-06T02:39:38.422Z,0.00
2022-09-06T02:40:38.318Z,0.00
2022-09-06T02:41:38.271Z,0.00
2022-09-06T02:42:38.235Z,0.00
2022-09-06T02:43:38.179Z,0.00
2022-09-06T02:44:38.126Z,0.00
2022-09-06T02:45:38.143Z,0.00
2022-09-06T02:46:38.030Z,0.00
2022-09-06T02:47:37.997Z,0.00
2022-09-06T02:48:37.930Z,0.00
2022-09-06T02:49:37.887Z,0.00
2022-09-06T02:50:37.834Z,0.00
2022-09-06T02:51:37.785Z,0.00
2022-09-06T02:52:37.735Z,0.00
2022-09-06T02:53:37.702Z,0.00
2022-09-06T02:54:37.642Z,0.00
2022-09-06T02:55:37.593Z,0.00
2022-09-06T02:56:37.555Z,0.00
2022-09-06T02:57:37.495Z,0.00
2022-09-06T02:58:37.445Z,0.00
2022-09-06T02:59:37.416Z,0.00
2022-09-06T03:00:37.393Z,0.00
2022-09-06T03:01:37.337Z,0.00
2022-09-06T03:02:37.304Z,0.00
2022-09-06T03:03:37.217Z,0.00
2022-09-06T03:04:37.155Z,0.00
2022-09-06T03:05:37.110Z,0.00
2022-09-06T03:06:37.058Z,0.00
2022-09-06T03:07:37.008Z,0.00
2022-09-06T03:08:36.979Z,0.00
2022-09-06T03:09:36.930Z,0.00
2022-09-06T03:10:36.868Z,0.00
2022-09-06T03:11:36.818Z,0.00
2022-09-06T03:12:36.766Z,0.00
2022-09-06T03:13:36.723Z,0.00
2022-09-06T03:14:36.684Z,0.00
2022-09-06T03:15:36.632Z,0.00
2022-09-06T03:16:36.633Z,0.00
2022-09-06T03:17:36.522Z,0.00
2022-09-06T03:18:36.472Z,0.00
2022-09-06T03:19:36.439Z,0.00
2022-09-06T03:20:37.266Z,0.00
2022-09-06T03:21:36.328Z,0.00
2022-09-06T03:22:36.282Z,0.00
2022-09-06T03:23:36.245Z,0.00
2022-09-06T03:24:36.201Z,0.00
2022-09-06T03:25:36.153Z,0.00
2022-09-06T03:26:36.091Z,0.00
2022-09-06T03:27:36.036Z,0.00
2022-09-06T03:28:35.991Z,0.00
2022-09-06T03:29:35.960Z,0.00
2022-09-06T03:30:35.932Z,0.00
2022-09-06T03:31:35.844Z,0.00
2022-09-06T03:32:35.793Z,0.00
2022-09-06T03:33:35.760Z,0.00
2022-09-06T03:34:35.695Z,0.00
2022-09-06T03:35:35.660Z,0.00
2022-09-06T03:36:35.596Z,0.00
2022-09-06T03:37:35.553Z,0.00
2022-09-06T03:38:35.514Z,0.00
2022-09-06T03:39:35.503Z,0.00
2022-09-06T03:40:35.403Z,0.00
2022-09-06T03:41:35.355Z,0.00
2022-09-06T03:42:35.309Z,0.00
2022-09-06T03:43:35.257Z,0.00
2022-09-06T03:44:35.220Z,0.00
2022-09-06T03:45:35.255Z,0.00
2022-09-06T03:46:35.117Z,0.00
2022-09-06T03:47:35.061Z,0.00
2022-09-06T03:48:35.013Z,0.00
2022-09-06T03:49:34.964Z,0.00
2022-09-06T03:50:34.930Z,0.00
2022-09-06T03:51:34.870Z,0.00
2022-09-06T03:52:34.823Z,0.00
2022-09-06T03:53:34.769Z,0.00
2022-09-06T03:54:34.736Z,0.00
2022-09-06T03:55:34.675Z,0.00
2022-09-06T03:56:34.622Z,0.00
2022-09-06T03:57:34.590Z,0.00
2022-09-06T03:58:34.525Z,0.00
2022-09-06T03:59:34.507Z,0.00
2022-09-06T04:00:34.428Z,0.00
2022-09-06T04:01:34.417Z,0.00
2022-09-06T04:02:34.374Z,0.00
2022-09-06T04:03:34.289Z,0.00
2022-09-06T04:04:34.234Z,0.00
2022-09-06T04:05:34.199Z,0.00
2022-09-06T04:06:34.147Z,0.00
2022-09-06T04:07:34.104Z,0.00
2022-09-06T04:08:34.038Z,0.00
2022-09-06T04:09:33.997Z,0.00
2022-09-06T04:10:33.970Z,0.00
2022-09-06T04:11:33.892Z,0.00
2022-09-06T04:12:33.845Z,0.00
2022-09-06T04:13:33.793Z,0.00
2022-09-06T04:14:33.746Z,0.00
2022-09-06T04:15:33.710Z,0.00
2022-09-06T04:16:33.696Z,0.00
2022-09-06T04:17:33.599Z,0.00
2022-09-06T04:18:33.551Z,0.00
2022-09-06T04:19:33.513Z,0.00
2022-09-06T04:20:33.450Z,0.00
2022-09-06T04:21:33.421Z,0.00
2022-09-06T04:22:33.352Z,0.00
2022-09-06T04:23:36.521Z,0.00
2022-09-06T04:24:33.255Z,0.00
2022-09-06T04:25:33.205Z,0.00
2022-09-06T04:26:33.171Z,0.00
2022-09-06T04:27:33.119Z,0.00
2022-09-06T04:28:33.077Z,0.00
2022-09-06T04:29:33.010Z,0.00
2022-09-06T04:30:32.967Z,0.00
2022-09-06T04:31:32.946Z,0.00
2022-09-06T04:32:32.860Z,0.00
2022-09-06T04:33:32.829Z,0.00
2022-09-06T04:34:32.766Z,0.00
2022-09-06T04:35:32.714Z,0.00
2022-09-06T04:36:32.667Z,0.00
2022-09-06T04:37:32.615Z,0.00
2022-09-06T04:38:32.579Z,0.00
2022-09-06T04:39:32.614Z,0.00
2022-09-06T04:40:32.472Z,0.00
2022-09-06T04:41:32.422Z,0.00
2022-09-06T04:42:32.371Z,0.00
2022-09-06T04:43:32.336Z,0.00
2022-09-06T04:44:32.269Z,0.00
2022-09-06T04:45:32.272Z,0.00
2022-09-06T04:46:32.179Z,0.00
2022-09-06T04:47:32.126Z,0.00
2022-09-06T04:48:32.075Z,0.00
2022-09-06T04:49:39.703Z,0.00
2022-09-06T04:50:31.990Z,0.00
2022-09-06T04:51:31.929Z,0.00
2022-09-06T04:52:31.879Z,0.00
2022-09-06T04:53:31.830Z,0.00
2022-09-06T04:54:31.797Z,0.00
2022-09-06T04:55:31.743Z,0.00
2022-09-06T04:56:31.685Z,0.00
2022-09-06T04:57:31.636Z,0.00
2022-09-06T04:58:31.587Z,0.00
2022-09-06T04:59:31.565Z,0.00
2022-09-06T05:00:31.505Z,0.00
2022-09-06T05:01:31.574Z,0.00
2022-09-06T05:02:31.454Z,0.00
2022-09-06T05:03:31.335Z,0.00
2022-09-06T05:04:31.300Z,5.63
2022-09-06T05:05:31.237Z,5.63
2022-09-06T05:06:31.203Z,5.63
2022-09-06T05:07:31.145Z,5.63
2022-09-06T05:08:31.089Z,5.63
2022-09-06T05:09:31.054Z,5.63
2022-09-06T05:10:30.997Z,5.63
2022-09-06T05:11:30.962Z,5.63
2022-09-06T05:12:30.893Z,5.63
2022-09-06T05:13:30.875Z,5.63
2022-09-06T05:14:30.805Z,5.63
2022-09-06T05:15:30.747Z,5.63
2022-09-06T05:16:30.731Z,5.63
2022-09-06T05:17:30.651Z,5.63
2022-09-06T05:18:30.810Z,5.63
2022-09-06T05:19:30.564Z,5.63
2022-09-06T05:20:30.502Z,5.63
2022-09-06T05:21:30.452Z,5.63
2022-09-06T05:22:30.402Z,11.25
2022-09-06T05:23:30.352Z,11.25
2022-09-06T05:24:30.337Z,11.25
2022-09-06T05:25:30.263Z,11.25
2022-09-06T05:26:30.219Z,11.25
2022-09-06T05:27:30.157Z,11.25
2022-09-06T05:28:30.122Z,11.25
2022-09-06T05:29:30.697Z,11.25
2022-09-06T05:30:30.014Z,11.25
2022-09-06T05:31:30.092Z,11.25
2022-09-06T05:32:29.923Z,11.25
2022-09-06T05:33:29.929Z,16.88
2022-09-06T05:34:29.826Z,16.88
2022-09-06T05:35:29.770Z,16.88
2022-09-06T05:36:29.739Z,16.88
2022-09-06T05:37:29.665Z,22.50
2022-09-06T05:38:29.880Z,22.50
2022-09-06T05:39:29.601Z,22.50
2022-09-06T05:40:29.518Z,22.50
2022-09-06T05:41:29.496Z,22.50
2022-09-06T05:42:29.417Z,22.50
2022-09-06T05:43:29.371Z,22.50
2022-09-06T05:44:29.320Z,22.50
2022-09-06T05:45:29.333Z,28.13
2022-09-06T05:46:29.230Z,28.13
2022-09-06T05:47:29.229Z,28.13
2022-09-06T05:48:31.283Z,28.13
2022-09-06T05:49:29.088Z,33.75
2022-09-06T05:50:29.026Z,39.38
2022-09-06T05:51:28.977Z,45.00
2022-09-06T05:52:28.948Z,45.00
2022-09-06T05:53:28.881Z,50.63
2022-09-06T05:54:28.847Z,50.63
2022-09-06T05:55:28.781Z,50.63
2022-09-06T05:56:28.732Z,50.63
2022-09-06T05:57:28.751Z,45.00
2022-09-06T05:58:28.727Z,39.38
2022-09-06T05:59:28.603Z,39.38
2022-09-06T06:00:28.586Z,33.75
2022-09-06T06:01:28.530Z,33.75
2022-09-06T06:02:28.494Z,28.13
2022-09-06T06:03:28.393Z,28.13
2022-09-06T06:04:28.363Z,28.13
2022-09-06T06:05:28.296Z,28.13
2022-09-06T06:06:28.257Z,22.50
2022-09-06T06:07:28.196Z,22.50
2022-09-06T06:08:28.322Z,22.50
2022-09-06T06:09:28.110Z,22.50
2022-09-06T06:10:28.078Z,22.50
2022-09-06T06:11:28.045Z,22.50
2022-09-06T06:12:27.950Z,22.50
2022-09-06T06:13:27.902Z,22.50
2022-09-06T06:14:27.854Z,22.50
2022-09-06T06:15:27.803Z,22.50
2022-09-06T06:16:27.810Z,22.50
2022-09-06T06:17:27.738Z,28.13
2022-09-06T06:18:27.736Z,28.13
2022-09-06T06:19:27.612Z,28.13
2022-09-06T06:20:27.658Z,28.13
2022-09-06T06:21:27.510Z,28.13
2022-09-06T06:22:27.463Z,33.75
2022-09-06T06:23:27.427Z,33.75
2022-09-06T06:24:27.368Z,33.75
2022-09-06T06:25:27.334Z,33.75
2022-09-06T06:26:27.271Z,33.75
2022-09-06T06:27:27.220Z,33.75
2022-09-06T06:28:27.250Z,33.75
2022-09-06T06:29:27.134Z,33.75
2022-09-06T06:30:27.159Z,33.75
2022-09-06T06:31:27.082Z,33.75
2022-09-06T06:32:26.973Z,33.75
2022-09-06T06:33:26.948Z,33.75
2022-09-06T06:34:26.875Z,33.75
2022-09-06T06:35:26.823Z,28.13
2022-09-06T06:36:26.777Z,28.13
2022-09-06T06:37:26.743Z,28.13
2022-09-06T06:38:26.686Z,28.13
2022-09-06T06:39:26.679Z,28.13
2022-09-06T06:40:26.642Z,28.13
2022-09-06T06:41:26.548Z,28.13
2022-09-06T06:42:26.489Z,28.13
2022-09-06T06:43:26.453Z,28.13
2022-09-06T06:44:26.390Z,28.13
2022-09-06T06:45:26.412Z,28.13
2022-09-06T06:46:26.306Z,28.13
2022-09-06T06:47:26.241Z,33.75
2022-09-06T06:48:26.258Z,33.75
2022-09-06T06:49:26.160Z,39.38
2022-09-06T06:50:26.199Z,39.38
2022-09-06T06:51:26.050Z,45.00
2022-09-06T06:52:25.998Z,45.00
2022-09-06T06:53:25.948Z,50.63
2022-09-06T06:54:25.899Z,56.25
2022-09-06T06:55:25.867Z,56.25
2022-09-06T06:56:25.801Z,56.25
2022-09-06T06:57:25.751Z,61.88
2022-09-06T06:58:25.767Z,73.13
2022-09-06T06:59:25.670Z,78.75
2022-09-06T07:00:28.279Z,90.00
2022-09-06T07:01:25.772Z,101.25
2022-09-06T07:02:25.591Z,118.13
2022-09-06T07:03:25.462Z,135.00
2022-09-06T07:04:25.411Z,157.50
2022-09-06T07:07:34.355Z,219.38
2022-09-06T07:08:25.219Z,230.63
2022-09-06T07:09:25.278Z,225.00
2022-09-06T07:11:25.078Z,225.00
2022-09-06T07:12:25.025Z,208.13
2022-09-06T07:13:24.976Z,191.25
2022-09-06T07:14:24.933Z,191.25
2022-09-06T07:15:24.897Z,196.88
2022-09-06T07:16:24.899Z,196.88
2022-09-06T07:17:24.786Z,208.13
2022-09-06T07:18:24.740Z,208.13
2022-09-06T07:20:24.756Z,180.00
2022-09-06T07:21:40.050Z,180.00
2022-09-06T07:22:24.559Z,185.63
2022-09-06T07:24:24.450Z,185.63
2022-09-06T07:25:24.404Z,202.50
2022-09-06T07:26:24.370Z,208.13
2022-09-06T07:28:24.299Z,213.75
2022-09-06T07:29:24.220Z,230.63
2022-09-06T07:30:24.221Z,219.38
2022-09-06T07:32:24.086Z,225.00
2022-09-06T07:33:24.072Z,219.38
2022-09-06T07:34:23.975Z,213.75
2022-09-06T07:35:23.927Z,208.13
2022-09-06T07:36:23.880Z,208.13
2022-09-06T07:37:23.846Z,213.75
2022-09-06T07:38:23.782Z,219.38
2022-09-06T07:39:23.767Z,230.63
2022-09-06T07:40:23.748Z,230.63
2022-09-06T07:41:23.639Z,213.75
2022-09-06T07:42:23.618Z,191.25
2022-09-06T07:43:23.582Z,202.50
2022-09-06T07:44:23.500Z,230.63
2022-09-06T07:45:23.450Z,281.25
2022-09-06T07:46:23.427Z,320.63
2022-09-06T07:48:23.316Z,326.25
2022-09-06T07:49:23.259Z,270.00
2022-09-06T07:51:23.218Z,292.50
2022-09-06T07:53:30.527Z,298.13
2022-09-06T07:54:31.149Z,253.13
2022-09-06T07:55:22.977Z,303.75
2022-09-06T07:56:22.928Z,315.00
2022-09-06T07:57:22.896Z,315.00
2022-09-06T07:58:22.834Z,331.88
2022-09-06T07:59:22.790Z,326.25
2022-09-06T08:00:22.759Z,326.25
2022-09-06T08:01:22.771Z,343.13
2022-09-06T08:02:22.697Z,275.63
2022-09-06T08:03:22.652Z,253.13
2022-09-06T08:04:22.552Z,225.00
2022-09-06T08:06:22.474Z,286.88
2022-09-06T08:09:22.319Z,388.13
2022-09-06T08:10:22.289Z,393.75
2022-09-06T08:11:22.238Z,405.00
2022-09-06T08:12:22.178Z,399.38
2022-09-06T08:13:22.181Z,399.38
2022-09-06T08:14:22.088Z,399.38
2022-09-06T08:15:22.060Z,393.75
2022-09-06T08:16:22.019Z,264.38
2022-09-06T08:17:21.955Z,309.38
2022-09-06T08:18:21.912Z,343.13
2022-09-06T08:19:21.882Z,405.00
2022-09-06T08:20:21.822Z,405.00
2022-09-06T08:21:21.794Z,393.75
2022-09-06T08:22:21.734Z,388.13
2022-09-06T08:23:21.743Z,382.50
2022-09-06T08:24:21.649Z,376.88
2022-09-06T08:25:21.622Z,376.88
2022-09-06T08:26:21.565Z,376.88
2022-09-06T08:27:21.574Z,376.88
2022-09-06T08:28:24.498Z,382.50
2022-09-06T08:29:21.440Z,399.38
2022-09-06T08:30:21.413Z,405.00
2022-09-06T08:31:21.383Z,405.00
2022-09-06T08:32:21.316Z,371.25
2022-09-06T08:33:21.320Z,399.38
2022-09-06T08:34:21.232Z,360.00
2022-09-06T08:35:21.206Z,388.13
2022-09-06T08:36:21.168Z,388.13
2022-09-06T08:37:24.922Z,461.25
2022-09-06T08:38:21.069Z,455.63
2022-09-06T08:39:21.026Z,500.63
2022-09-06T08:40:21.002Z,556.88
2022-09-06T08:41:20.946Z,551.25
2022-09-06T08:42:20.922Z,556.88
2022-09-06T08:43:20.959Z,461.25
2022-09-06T08:45:20.781Z,472.50
2022-09-06T08:46:20.788Z,444.38
2022-09-06T08:47:20.716Z,506.25
2022-09-06T08:48:20.657Z,506.25
2022-09-06T08:49:20.616Z,511.88
2022-09-06T08:50:20.577Z,523.13
2022-09-06T08:51:20.551Z,540.00
2022-09-06T08:52:20.510Z,540.00
2022-09-06T08:53:20.483Z,489.38
2022-09-06T08:54:20.414Z,376.88
2022-09-06T08:55:20.386Z,343.13
2022-09-06T08:56:20.333Z,343.13
2022-09-06T08:57:20.293Z,360.00
2022-09-06T08:58:20.266Z,455.63
2022-09-06T08:59:20.208Z,483.75
2022-09-06T09:00:20.171Z,416.25
2022-09-06T09:01:20.209Z,478.13
2022-09-06T09:02:20.141Z,461.25
2022-09-06T09:03:20.080Z,483.75
2022-09-06T09:04:20.004Z,472.50
2022-09-06T09:05:19.962Z,478.13
2022-09-06T09:06:19.922Z,472.50
2022-09-06T09:07:19.879Z,450.00
2022-09-06T09:08:19.848Z,461.25
2022-09-06T09:09:19.812Z,444.38
2022-09-06T09:10:19.760Z,433.13
2022-09-06T09:11:19.724Z,427.50
2022-09-06T09:12:19.712Z,405.00
2022-09-06T09:13:19.634Z,405.00
2022-09-06T09:14:19.617Z,399.38
2022-09-06T09:15:19.554Z,393.75
2022-09-06T09:16:19.586Z,388.13
2022-09-06T09:17:19.472Z,382.50
2022-09-06T09:18:19.434Z,382.50
2022-09-06T09:19:19.410Z,371.25
2022-09-06T09:20:19.348Z,376.88
2022-09-06T09:21:19.309Z,376.88
2022-09-06T09:22:19.271Z,376.88
2022-09-06T09:23:19.227Z,371.25
2022-09-06T09:24:19.189Z,365.63
2022-09-06T09:25:19.165Z,365.63
2022-09-06T09:26:19.106Z,365.63
2022-09-06T09:27:19.066Z,365.63
2022-09-06T09:28:19.023Z,365.63
2022-09-06T09:29:21.701Z,365.63
2022-09-06T09:31:18.971Z,365.63
2022-09-06T09:32:18.860Z,371.25
2022-09-06T09:33:18.820Z,360.00
2022-09-06T09:34:18.786Z,354.38
2022-09-06T09:35:18.735Z,371.25
2022-09-06T09:36:18.837Z,343.13
2022-09-06T09:38:18.629Z,343.13
2022-09-06T09:39:18.863Z,331.88
2022-09-06T09:40:18.532Z,337.50
2022-09-06T09:41:18.506Z,337.50
2022-09-06T09:42:18.475Z,337.50
2022-09-06T09:43:18.408Z,337.50
2022-09-06T09:44:18.370Z,331.88
2022-09-06T09:45:18.328Z,337.50
2022-09-06T09:46:18.335Z,343.13
2022-09-06T09:47:18.248Z,343.13
2022-09-06T09:48:18.227Z,343.13
2022-09-06T09:49:18.167Z,343.13
2022-09-06T09:50:18.136Z,343.13
2022-09-06T09:51:25.431Z,337.50
2022-09-06T09:52:18.044Z,337.50
2022-09-06T09:53:18.001Z,337.50
2022-09-06T09:54:17.977Z,337.50
2022-09-06T09:55:17.921Z,337.50
2022-09-06T09:56:17.879Z,337.50
2022-09-06T09:57:17.861Z,343.13
2022-09-06T09:58:17.802Z,343.13
2022-09-06T09:59:17.761Z,343.13
2022-09-06T10:00:17.720Z,343.13
2022-09-06T10:01:17.757Z,348.75
2022-09-06T10:02:17.637Z,354.38
2022-09-06T10:03:17.671Z,354.38
2022-09-06T10:05:17.520Z,365.63
2022-09-06T10:07:17.441Z,365.63
2022-09-06T10:08:17.395Z,360.00
2022-09-06T10:09:19.187Z,354.38
2022-09-06T10:10:17.328Z,354.38
2022-09-06T10:11:17.274Z,360.00
2022-09-06T10:12:17.249Z,360.00
2022-09-06T10:13:17.193Z,360.00
2022-09-06T10:14:17.167Z,360.00
2022-09-06T10:15:17.128Z,202.50
2022-09-06T10:16:17.240Z,303.75
2022-09-06T10:17:17.033Z,360.00
2022-09-06T10:18:16.989Z,365.63
2022-09-06T10:19:16.951Z,219.38
2022-09-06T10:20:17.018Z,360.00
2022-09-06T10:21:16.877Z,360.00
2022-09-06T10:22:16.851Z,360.00
2022-09-06T10:23:16.893Z,360.00
2022-09-06T10:24:32.207Z,354.38
2022-09-06T10:25:16.708Z,354.38
2022-09-06T10:26:16.668Z,225.00
2022-09-06T10:27:16.628Z,354.38
2022-09-06T10:28:16.602Z,354.38
2022-09-06T10:29:16.563Z,360.00
2022-09-06T10:30:16.567Z,354.38
2022-09-06T10:31:16.497Z,354.38
2022-09-06T10:32:16.429Z,348.75
2022-09-06T10:33:16.886Z,281.25
2022-09-06T10:34:16.351Z,337.50
2022-09-06T10:35:16.310Z,354.38
2022-09-06T10:36:16.270Z,303.75
2022-09-06T10:37:16.230Z,360.00
2022-09-06T10:38:16.206Z,360.00
2022-09-06T10:39:16.152Z,365.63
2022-09-06T10:40:16.118Z,371.25
2022-09-06T10:41:16.070Z,337.50
2022-09-06T10:42:16.031Z,196.88
2022-09-06T10:43:16.002Z,196.88
2022-09-06T10:44:15.983Z,225.00
2022-09-06T10:45:15.962Z,376.88
2022-09-06T10:46:15.956Z,219.38
2022-09-06T10:47:15.842Z,275.63
2022-09-06T10:48:15.793Z,376.88
2022-09-06T10:49:15.756Z,371.25
2022-09-06T10:50:15.716Z,365.63
2022-09-06T10:51:15.711Z,365.63
2022-09-06T10:52:15.656Z,185.63
2022-09-06T10:53:15.595Z,180.00
2022-09-06T10:54:15.553Z,174.38
2022-09-06T10:55:15.586Z,180.00
2022-09-06T10:56:15.486Z,253.13
2022-09-06T11:00:15.312Z,360.00
2022-09-06T11:01:15.327Z,360.00
2022-09-06T11:02:15.353Z,343.13
2022-09-06T11:04:15.172Z,185.63
2022-09-06T11:05:44.720Z,354.38
2022-09-06T11:06:17.263Z,196.88
2022-09-06T11:07:15.034Z,354.38
2022-09-06T11:09:14.989Z,354.38
2022-09-06T11:10:14.916Z,354.38
2022-09-06T11:11:14.876Z,292.50
2022-09-06T11:12:14.842Z,230.63
2022-09-06T11:13:14.807Z,348.75
2022-09-06T11:14:14.772Z,343.13
2022-09-06T11:15:14.730Z,185.63
2022-09-06T11:16:14.729Z,337.50
2022-09-06T11:17:14.651Z,168.75
2022-09-06T11:18:14.599Z,174.38
2022-09-06T11:19:14.569Z,343.13
2022-09-06T11:20:14.517Z,343.13
2022-09-06T11:21:19.264Z,337.50
2022-09-06T11:22:14.442Z,337.50
2022-09-06T11:23:14.399Z,343.13
2022-09-06T11:24:14.374Z,320.63
2022-09-06T11:25:14.319Z,337.50
2022-09-06T11:26:14.279Z,185.63
2022-09-06T11:27:14.241Z,191.25
2022-09-06T11:28:14.217Z,180.00
2022-09-06T11:29:14.159Z,180.00
2022-09-06T11:30:14.123Z,343.13
2022-09-06T11:33:14.002Z,365.63
2022-09-06T11:34:13.961Z,376.88
2022-09-06T11:35:13.931Z,365.63
2022-09-06T11:36:13.885Z,360.00
2022-09-06T11:37:13.858Z,360.00
2022-09-06T11:38:13.805Z,360.00
2022-09-06T11:39:13.780Z,365.63
2022-09-06T11:40:29.441Z,213.75
2022-09-06T11:41:13.687Z,185.63
2022-09-06T11:42:13.678Z,191.25
2022-09-06T11:43:13.608Z,230.63
2022-09-06T11:44:13.583Z,343.13
2022-09-06T11:45:13.573Z,337.50
2022-09-06T11:46:16.356Z,337.50
2022-09-06T11:47:13.494Z,331.88
2022-09-06T11:48:13.425Z,337.50
2022-09-06T11:49:13.373Z,185.63
2022-09-06T11:50:13.337Z,163.13
2022-09-06T11:51:13.823Z,163.13
2022-09-06T11:52:13.317Z,163.13
2022-09-06T11:53:13.229Z,168.75
2022-09-06T11:54:13.179Z,331.88
2022-09-06T11:55:13.136Z,326.25
2022-09-06T11:56:13.096Z,241.88
2022-09-06T11:57:13.060Z,208.13
2022-09-06T11:58:13.032Z,140.63
2022-09-06T11:59:12.982Z,140.63
2022-09-06T12:00:12.940Z,140.63
2022-09-06T12:01:12.925Z,151.88
2022-09-06T12:02:12.863Z,151.88
2022-09-06T12:04:12.783Z,146.25
2022-09-06T12:05:12.756Z,309.38
2022-09-06T12:06:12.704Z,315.00
2022-09-06T12:07:12.678Z,320.63
2022-09-06T12:08:12.623Z,320.63
2022-09-06T12:09:12.598Z,315.00
2022-09-06T12:10:12.544Z,315.00
2022-09-06T12:11:12.566Z,309.38
2022-09-06T12:12:16.885Z,309.38
2022-09-06T12:13:12.430Z,303.75
2022-09-06T12:14:12.390Z,303.75
2022-09-06T12:15:12.352Z,309.38
2022-09-06T12:16:12.385Z,315.00
2022-09-06T12:17:12.291Z,315.00
2022-09-06T12:18:12.233Z,320.63
2022-09-06T12:19:12.192Z,315.00
2022-09-06T12:20:12.171Z,315.00
2022-09-06T12:21:12.130Z,315.00
2022-09-06T12:22:12.075Z,315.00
2022-09-06T12:23:12.039Z,315.00
2022-09-06T12:24:12.000Z,315.00
2022-09-06T12:25:11.975Z,315.00
2022-09-06T12:26:11.943Z,315.00
2022-09-06T12:27:11.882Z,315.00
2022-09-06T12:28:11.842Z,315.00
2022-09-06T12:29:11.803Z,320.63
2022-09-06T12:30:11.782Z,315.00
2022-09-06T12:31:18.116Z,309.38
2022-09-06T12:32:11.689Z,309.38
2022-09-06T12:33:11.650Z,309.38
2022-09-06T12:34:11.610Z,309.38
2022-09-06T12:36:11.531Z,309.38
2022-09-06T12:37:11.494Z,309.38
2022-09-06T12:38:11.473Z,309.38
2022-09-06T12:39:11.417Z,315.00
2022-09-06T12:40:11.455Z,309.38
2022-09-06T12:41:11.354Z,309.38
2022-09-06T12:42:11.317Z,309.38
2022-09-06T12:43:11.273Z,309.38
2022-09-06T12:44:11.229Z,303.75
2022-09-06T12:45:11.185Z,303.75
2022-09-06T12:46:11.192Z,303.75
2022-09-06T12:47:11.127Z,298.13
2022-09-06T12:48:11.071Z,298.13
2022-09-06T12:49:11.033Z,298.13
2022-09-06T12:50:10.995Z,298.13
2022-09-06T12:51:10.972Z,298.13
2022-09-06T12:52:10.919Z,298.13
2022-09-06T12:53:14.559Z,298.13
2022-09-06T12:54:10.841Z,298.13
2022-09-06T12:55:10.804Z,303.75
2022-09-06T12:56:10.765Z,303.75
2022-09-06T12:57:10.726Z,303.75
2022-09-06T12:58:10.687Z,303.75
2022-09-06T12:59:10.717Z,298.13
2022-09-06T13:00:19.946Z,298.13
2022-09-06T13:01:10.708Z,298.13
2022-09-06T13:02:10.969Z,298.13
2022-09-06T13:03:10.497Z,298.13
2022-09-06T13:04:10.458Z,298.13
2022-09-06T13:05:10.425Z,298.13
2022-09-06T13:06:10.394Z,292.50
2022-09-06T13:07:10.360Z,292.50
2022-09-06T13:08:10.303Z,292.50
2022-09-06T13:09:10.264Z,292.50
2022-09-06T13:10:10.225Z,292.50
2022-09-06T13:11:10.217Z,298.13
2022-09-06T13:12:10.153Z,298.13
2022-09-06T13:13:10.122Z,298.13
2022-09-06T13:14:13.988Z,180.00
2022-09-06T13:15:10.045Z,292.50
2022-09-06T13:16:10.070Z,298.13
2022-09-06T13:17:09.982Z,298.13
2022-09-06T13:18:09.923Z,303.75